Monument Lake Park, Colorado
Current Conditions -  °F | °C
As of 1:47 AM on Friday 24 Oct 2014 (Local Time) from KVTP Reporting Station
Clear Clear  
Wind Chill: 35°   Ceiling: Unl
Heat Index: 43°   Visibility: 10mi
Dew Point: 28°   Wind: 18mph
Humidity: 57%   Direction: 190°S
Pressure: 30.44"   Gusts: 35mph
Location:  37.1566°N, 104.956°W
Report Text: KVTP 240747Z AUTO 19016G30KT 180V250 10SM CLR 06/M02 A3044 RMK AO2
Loading
Personal Weather Stations






























Interactive Weather Map
Tropical Storm Tracking
New forecast layout! Learn more

10-Day Weather Forecast

Advertisements
Track Severe Weather on mobile